Time;durP1;ratioP1;P1;durP2;ratioP2;P2;SDS_P1;SDS_P2;PMS_P1;PMS_P2;Temp;Humidity;BMP_temperature;BMP_pressure;BME280_temperature;BME280_humidity;BME280_pressure;Samples;Min_cycle;Max_cycle;Signal;HPM_P1;HPM_P2
2023/05/22 00:01:45;;;;;;;19.55;13.45;;;;;;;18.49;100.00;101341.03;5038910;28;20049;-67
2023/05/22 00:04:19;;;;;;;22.45;14.50;;;;;;;18.49;100.00;101349.31;5056640;28;20087;-67
2023/05/22 00:06:48;;;;;;;19.65;14.05;;;;;;;18.48;100.00;101354.03;5054934;28;20049;-65
2023/05/22 00:09:15;;;;;;;19.95;13.80;;;;;;;18.46;100.00;101360.97;5054665;28;20041;-66
2023/05/22 00:11:43;;;;;;;20.08;14.02;;;;;;;18.41;100.00;101358.31;5037976;28;20073;-66
2023/05/22 00:14:12;;;;;;;20.65;13.82;;;;;;;18.38;100.00;101358.94;5052034;28;20083;-66
2023/05/22 00:16:40;;;;;;;21.05;13.77;;;;;;;18.36;100.00;101362.00;5069267;28;20080;-67
2023/05/22 00:19:15;;;;;;;21.77;13.55;;;;;;;18.34;100.00;101358.72;5052179;28;20530;-66
2023/05/22 00:21:45;;;;;;;20.52;13.32;;;;;;;18.34;100.00;101363.44;5043942;28;20037;-66
2023/05/22 00:24:13;;;;;;;23.23;14.25;;;;;;;18.33;100.00;101361.78;5041850;28;20061;-66
2023/05/22 00:26:41;;;;;;;20.70;13.73;;;;;;;18.30;100.00;101369.59;5054205;28;20056;-66
2023/05/22 00:29:09;;;;;;;18.83;13.38;;;;;;;18.26;100.00;101360.28;5004962;28;20052;-65
2023/05/22 00:31:37;;;;;;;22.75;15.35;;;;;;;18.24;100.00;101368.03;5054401;28;20157;-66
2023/05/22 00:34:05;;;;;;;21.05;13.55;;;;;;;18.21;100.00;101356.81;5062442;28;20037;-65
2023/05/22 00:36:33;;;;;;;20.40;14.55;;;;;;;18.19;100.00;101356.28;5074295;28;20397;-66
2023/05/22 00:39:00;;;;;;;22.08;14.73;;;;;;;18.16;100.00;101354.13;5074994;28;20044;-66
2023/05/22 00:41:28;;;;;;;21.08;14.27;;;;;;;18.13;100.00;101358.31;5074035;28;20094;-66
2023/05/22 00:43:56;;;;;;;20.23;14.00;;;;;;;18.10;100.00;101354.22;5037972;28;20461;-67
2023/05/22 00:46:24;;;;;;;23.92;14.35;;;;;;;18.10;100.00;101347.91;5055382;28;20052;-67
2023/05/22 00:48:52;;;;;;;22.52;14.32;;;;;;;18.09;100.00;101340.78;5037911;28;20141;-66
2023/05/22 00:51:23;;;;;;;22.60;14.30;;;;;;;18.05;100.00;101345.25;5055365;28;20128;-66
2023/05/22 00:53:53;;;;;;;21.92;14.23;;;;;;;18.00;100.00;101348.13;5033706;28;20140;-67
2023/05/22 00:56:21;;;;;;;20.67;14.15;;;;;;;18.01;100.00;101350.53;5050607;28;20053;-67
2023/05/22 00:58:50;;;;;;;26.05;14.02;;;;;;;18.00;100.00;101342.59;5035376;28;20053;-67
2023/05/22 01:01:18;;;;;;;22.83;15.00;;;;;;;18.00;100.00;101334.31;5033655;28;20474;-66
2023/05/22 01:03:46;;;;;;;19.90;13.98;;;;;;;18.01;100.00;101335.94;5025620;28;20037;-67
2023/05/22 01:06:17;;;;;;;22.10;14.60;;;;;;;18.01;100.00;101338.72;5034326;28;20052;-66
2023/05/22 01:08:44;;;;;;;20.88;14.32;;;;;;;17.99;100.00;101338.19;5049804;28;20099;-66
2023/05/22 01:11:26;;;;;;;19.88;13.38;;;;;;;17.96;100.00;101336.06;5033780;28;20042;-66
2023/05/22 01:14:04;;;;;;;20.73;14.50;;;;;;;17.93;100.00;101331.16;5042551;28;20501;-66
2023/05/22 01:16:39;;;;;;;21.23;14.93;;;;;;;17.91;100.00;101330.63;5017598;28;20113;-66
2023/05/22 01:19:36;;;;;;;20.13;14.07;;;;;;;17.85;100.00;101330.75;5034532;28;20053;-66
2023/05/22 01:22:29;;;;;;;22.42;14.55;;;;;;;17.84;100.00;101326.34;5033787;28;20494;-67
2023/05/22 01:25:12;;;;;;;25.35;15.07;;;;;;;17.82;100.00;101325.84;5059270;28;20397;-66
2023/05/22 01:27:58;;;;;;;20.70;13.30;;;;;;;17.81;100.00;101323.38;5053612;28;20131;-65
2023/05/22 01:30:49;;;;;;;21.42;14.00;;;;;;;17.78;100.00;101322.03;5054471;28;20045;-66
2023/05/22 01:33:18;;;;;;;22.05;14.52;;;;;;;17.77;100.00;101328.63;5052987;28;20094;-66
2023/05/22 01:35:47;;;;;;;21.38;13.82;;;;;;;17.78;100.00;101322.03;5021686;28;20550;-66
2023/05/22 01:38:16;;;;;;;22.83;14.30;;;;;;;17.79;100.00;101320.88;5033373;28;20060;-66
2023/05/22 01:40:45;;;;;;;20.58;14.40;;;;;;;17.80;100.00;101317.06;5022921;28;20152;-65
2023/05/22 01:43:14;;;;;;;20.15;14.27;;;;;;;17.77;100.00;101323.13;5032983;28;20060;-66
2023/05/22 01:45:41;;;;;;;23.25;14.05;;;;;;;17.76;100.00;101321.50;5051063;28;20045;-66
2023/05/22 01:48:11;;;;;;;20.80;14.32;;;;;;;17.76;100.00;101332.53;5036846;28;20045;-65
2023/05/22 01:50:39;;;;;;;18.27;13.50;;;;;;;17.76;100.00;101321.50;5021856;28;20049;-66
2023/05/22 01:53:12;;;;;;;21.83;14.15;;;;;;;17.71;100.00;101324.38;5054225;28;20090;-66
2023/05/22 01:55:47;;;;;;;22.33;13.00;;;;;;;17.67;100.00;101320.56;5052609;28;20480;-65
2023/05/22 01:58:30;;;;;;;23.25;14.18;;;;;;;17.63;100.00;101317.63;5037191;28;20140;-65
2023/05/22 02:00:59;;;;;;;21.27;13.88;;;;;;;17.61;100.00;101321.81;5039054;28;20146;-65
2023/05/22 02:03:30;;;;;;;21.67;13.00;;;;;;;17.58;100.00;101316.88;5078877;28;20101;-64
2023/05/22 02:06:02;;;;;;;22.33;13.60;;;;;;;17.56;100.00;101321.91;5021979;28;20045;-64
2023/05/22 02:08:31;;;;;;;18.70;13.27;;;;;;;17.54;100.00;101318.63;5038181;28;20100;-65
2023/05/22 02:10:59;;;;;;;18.42;13.00;;;;;;;17.51;100.00;101324.72;5043486;28;20053;-65
2023/05/22 02:13:27;;;;;;;21.05;13.70;;;;;;;17.49;100.00;101321.47;5040807;28;20121;-64
2023/05/22 02:15:56;;;;;;;18.52;12.52;;;;;;;17.45;100.00;101315.72;5040577;28;20049;-63
2023/05/22 02:18:28;;;;;;;23.35;13.68;;;;;;;17.43;100.00;101320.72;5060819;28;20049;-64
2023/05/22 02:20:57;;;;;;;18.38;12.75;;;;;;;17.40;100.00;101322.16;5020935;28;20052;-65
2023/05/22 02:23:25;;;;;;;19.38;12.77;;;;;;;17.36;100.00;101318.34;5052235;28;20053;-66
2023/05/22 02:25:56;;;;;;;17.17;12.75;;;;;;;17.36;100.00;101318.34;5035688;28;20052;-66
2023/05/22 02:28:23;;;;;;;21.30;13.52;;;;;;;17.33;100.00;101313.44;5031179;28;20153;-65
2023/05/22 02:30:51;;;;;;;23.38;13.10;;;;;;;17.33;100.00;101302.44;5038582;28;20378;-66
2023/05/22 02:33:19;;;;;;;19.15;12.65;;;;;;;17.30;100.00;101302.22;5052442;28;20056;-66
2023/05/22 02:35:49;;;;;;;20.90;12.68;;;;;;;17.27;100.00;101303.66;5034801;28;20037;-66
2023/05/22 02:38:16;;;;;;;24.50;13.15;;;;;;;17.26;100.00;101307.50;5039470;28;20077;-67
2023/05/22 02:40:48;;;;;;;20.92;13.13;;;;;;;17.26;100.00;101307.50;5071449;28;20396;-65
2023/05/22 02:43:17;;;;;;;21.67;13.57;;;;;;;17.20;100.00;101305.97;5054380;28;20087;-66
2023/05/22 02:45:45;;;;;;;19.70;13.18;;;;;;;17.17;100.00;101303.81;5035141;28;20059;-66
2023/05/22 02:48:13;;;;;;;19.80;13.18;;;;;;;17.15;100.00;101303.28;5050234;28;20045;-66
2023/05/22 02:50:43;;;;;;;18.38;12.93;;;;;;;17.16;100.00;101299.44;5052299;28;20075;-66
2023/05/22 02:53:11;;;;;;;21.83;13.98;;;;;;;17.15;100.00;101300.53;5050686;28;20060;-66
2023/05/22 02:55:40;;;;;;;21.38;13.60;;;;;;;17.14;100.00;101298.91;5034589;28;20044;-66
2023/05/22 02:58:10;;;;;;;18.33;12.57;;;;;;;17.13;100.00;101291.78;5040606;28;20127;-66
2023/05/22 03:00:38;;;;;;;22.42;14.35;;;;;;;17.11;100.00;101299.50;5047494;28;20075;-66
2023/05/22 03:03:06;;;;;;;20.60;13.40;;;;;;;17.09;100.00;101296.25;5030663;28;20048;-65
2023/05/22 03:05:34;;;;;;;21.65;13.75;;;;;;;17.08;100.00;101297.34;5050392;28;20438;-66
2023/05/22 03:08:02;;;;;;;20.60;12.95;;;;;;;17.05;100.00;101296.00;5052277;28;20068;-66
2023/05/22 03:10:30;;;;;;;25.58;14.07;;;;;;;17.01;100.00;101287.53;5050025;28;20121;-66
2023/05/22 03:12:58;;;;;;;22.58;14.43;;;;;;;16.95;100.00;101285.97;5011881;28;1106672;-66
2023/05/22 03:15:26;;;;;;;21.10;14.50;;;;;;;16.92;100.00;101286.59;5034922;28;20512;-67
2023/05/22 03:17:58;;;;;;;22.10;13.57;;;;;;;16.88;100.00;101285.53;5035482;28;20041;-66
2023/05/22 03:20:26;;;;;;;25.50;14.95;;;;;;;16.86;100.00;101293.31;5032911;28;20041;-65
2023/05/22 03:22:55;;;;;;;22.90;13.75;;;;;;;16.83;100.00;101289.19;5051655;28;20044;-66
2023/05/22 03:25:22;;;;;;;21.98;13.93;;;;;;;16.84;100.00;101287.28;5018804;28;20516;-65
2023/05/22 03:27:51;;;;;;;22.65;13.98;;;;;;;16.82;100.00;101284.81;5057213;28;20049;-66
2023/05/22 03:30:20;;;;;;;22.45;14.23;;;;;;;16.83;100.00;101282.88;5063889;28;20044;-67
2023/05/22 03:32:58;;;;;;;21.83;14.98;;;;;;;16.82;100.00;101281.25;5052038;28;20049;-66
2023/05/22 03:35:27;;;;;;;22.30;14.40;;;;;;;16.81;100.00;101274.09;5035444;28;20107;-65
2023/05/22 03:37:55;;;;;;;22.77;14.48;;;;;;;16.79;100.00;101276.34;5035473;28;20052;-66
2023/05/22 03:40:23;;;;;;;19.05;14.10;;;;;;;16.79;100.00;101273.59;5051282;28;20045;-67
2023/05/22 03:42:51;;;;;;;22.10;14.63;;;;;;;16.79;100.00;101284.59;5063426;28;20383;-67
2023/05/22 03:45:19;;;;;;;23.50;14.90;;;;;;;16.79;100.00;101282.66;5055171;28;20102;-66
2023/05/22 03:47:47;;;;;;;26.98;16.48;;;;;;;16.77;100.00;101279.34;5054720;28;20412;-67
2023/05/22 03:50:15;;;;;;;25.25;15.38;;;;;;;16.77;100.00;101284.06;5055155;28;20052;-66
2023/05/22 03:52:42;;;;;;;25.80;15.75;;;;;;;16.76;100.00;101276.91;5053125;28;20111;-67
2023/05/22 03:55:10;;;;;;;30.65;16.85;;;;;;;16.74;100.00;101276.38;5056184;28;20076;-66
2023/05/22 03:57:38;;;;;;;28.65;16.73;;;;;;;16.75;100.00;101278.03;5054830;28;20045;-65
2023/05/22 04:00:10;;;;;;;28.92;16.67;;;;;;;16.72;100.00;101278.63;5056158;28;20505;-66
2023/05/22 04:02:45;;;;;;;36.38;19.27;;;;;;;16.71;100.00;101275.03;5053042;28;20584;-67
2023/05/22 04:05:13;;;;;;;31.70;18.73;;;;;;;16.69;100.00;101281.94;5037437;28;20049;-67
2023/05/22 04:07:41;;;;;;;32.10;17.92;;;;;;;16.64;100.00;101285.59;5016655;28;20085;-66
2023/05/22 04:10:09;;;;;;;31.55;18.60;;;;;;;16.60;100.00;101277.13;5048453;28;20075;-66
2023/05/22 04:12:37;;;;;;;32.30;18.45;;;;;;;16.59;100.00;101280.97;5052321;28;20065;-65
2023/05/22 04:15:06;;;;;;;36.75;20.45;;;;;;;16.56;100.00;101280.78;5053084;28;20045;-66
2023/05/22 04:17:39;;;;;;;32.55;19.55;;;;;;;16.53;100.00;101290.44;5021486;28;20053;-66
2023/05/22 04:20:07;;;;;;;33.13;20.25;;;;;;;16.53;100.00;101282.19;5038827;28;20045;-66
2023/05/22 04:22:35;;;;;;;32.30;18.83;;;;;;;16.54;100.00;101292.06;5051149;28;20176;-66
2023/05/22 04:25:03;;;;;;;32.35;20.05;;;;;;;16.51;100.00;101289.91;5037509;28;20547;-67
2023/05/22 04:27:32;;;;;;;30.98;19.25;;;;;;;16.47;100.00;101290.81;5040974;28;20494;-65
2023/05/22 04:30:01;;;;;;;38.17;21.45;;;;;;;16.45;100.00;101299.38;5052734;28;20500;-65
2023/05/22 04:32:30;;;;;;;33.72;20.17;;;;;;;16.44;100.00;101297.72;5055479;28;20053;-66
2023/05/22 04:34:59;;;;;;;33.42;20.70;;;;;;;16.42;100.00;101297.19;5054145;28;20502;-65
2023/05/22 04:37:27;;;;;;;35.97;22.02;;;;;;;16.39;100.00;101295.03;5054238;28;20049;-65
2023/05/22 04:40:02;;;;;;;32.95;20.67;;;;;;;16.36;100.00;101298.38;5036247;28;20061;-66
2023/05/22 04:42:33;;;;;;;35.45;19.92;;;;;;;16.30;100.00;101297.63;5055304;28;20041;-66
2023/05/22 04:45:01;;;;;;;36.60;21.60;;;;;;;16.31;100.00;101303.97;5035297;28;20046;-65
2023/05/22 04:47:30;;;;;;;37.65;21.42;;;;;;;16.30;100.00;101308.63;5033907;28;20107;-66
2023/05/22 04:50:03;;;;;;;38.10;21.70;;;;;;;16.27;100.00;101308.41;5033729;28;20052;-67
2023/05/22 04:52:31;;;;;;;28.02;17.77;;;;;;;16.27;100.00;101311.97;5040627;28;20051;-65
2023/05/22 04:54:59;;;;;;;29.63;19.42;;;;;;;16.30;100.00;101313.31;5037883;28;20116;-66
2023/05/22 04:57:28;;;;;;;35.95;20.17;;;;;;;16.30;100.00;101310.56;5066519;28;20055;-66
2023/05/22 04:59:56;;;;;;;30.30;20.33;;;;;;;16.29;100.00;101311.69;5073580;28;20098;-65
2023/05/22 05:02:24;;;;;;;33.03;20.48;;;;;;;16.29;100.00;101317.19;5072572;28;20049;-66
2023/05/22 05:04:52;;;;;;;30.40;20.10;;;;;;;16.28;100.00;101315.53;5019199;28;20045;-67
2023/05/22 05:07:20;;;;;;;37.83;21.25;;;;;;;16.24;100.00;101320.81;5045950;28;20099;-64
2023/05/22 05:09:48;;;;;;;30.92;19.85;;;;;;;16.21;100.00;101310.41;5049770;28;20055;-64
2023/05/22 05:12:16;;;;;;;31.08;20.08;;;;;;;16.18;100.00;101321.97;5036456;28;20041;-64
2023/05/22 05:14:45;;;;;;;34.83;20.30;;;;;;;16.15;100.00;101320.63;5036328;28;20056;-65
2023/05/22 05:17:17;;;;;;;35.35;21.38;;;;;;;16.16;100.00;101318.69;5054129;28;20033;-65
2023/05/22 05:19:45;;;;;;;37.22;21.15;;;;;;;16.18;100.00;101319.22;5039831;28;20053;-65
2023/05/22 05:22:12;;;;;;;40.85;20.17;;;;;;;16.17;100.00;101321.16;5055463;28;20033;-65
2023/05/22 05:24:40;;;;;;;34.42;20.10;;;;;;;16.20;100.00;101325.25;5037805;28;20049;-65
2023/05/22 05:27:09;;;;;;;39.70;23.88;;;;;;;16.22;100.00;101333.22;5057097;28;20048;-65
2023/05/22 05:29:37;;;;;;;32.45;21.58;;;;;;;16.15;100.00;101328.88;4353375;28;10000235;-66
2023/05/22 05:32:37;;;;;;;36.78;23.55;;;;;;;16.09;100.00;101323.72;5050794;28;20057;-66
2023/05/22 05:35:19;;;;;;;38.63;23.55;;;;;;;16.05;100.00;101329.00;5015465;28;20049;-66
2023/05/22 05:38:01;;;;;;;36.13;23.95;;;;;;;16.03;100.00;101328.47;5039279;28;20081;-66
2023/05/22 05:40:31;;;;;;;41.45;24.60;;;;;;;15.98;100.00;101329.34;5048320;28;20124;-66
2023/05/22 05:42:58;;;;;;;38.03;25.55;;;;;;;15.95;100.00;101329.13;5050039;28;20103;-66
2023/05/22 05:45:29;;;;;;;43.20;25.58;;;;;;;15.94;100.00;101333.78;5050050;28;20052;-66
2023/05/22 05:47:57;;;;;;;37.97;23.75;;;;;;;15.93;100.00;101331.34;5050859;28;20131;-67
2023/05/22 05:50:25;;;;;;;40.58;25.65;;;;;;;15.94;100.00;101338.47;5050653;28;20655;-65
2023/05/22 05:52:54;;;;;;;41.72;26.75;;;;;;;15.91;100.00;101347.31;5031965;28;20057;-65
2023/05/22 05:55:22;;;;;;;42.78;25.40;;;;;;;15.89;100.00;101352.25;5049480;28;20098;-66
2023/05/22 05:57:51;;;;;;;40.63;26.10;;;;;;;15.88;100.00;101350.63;5049318;28;20045;-65
2023/05/22 06:00:26;;;;;;;42.63;27.70;;;;;;;15.89;100.00;101347.56;5031121;28;20057;-64
2023/05/22 06:02:55;;;;;;;37.70;25.42;;;;;;;15.88;100.00;101345.13;5048273;28;20110;-63
2023/05/22 06:05:33;;;;;;;41.85;26.25;;;;;;;15.86;100.00;101347.34;5052109;28;20127;-63
2023/05/22 06:08:14;;;;;;;46.20;28.67;;;;;;;15.82;100.00;101338.84;5085071;28;20056;-64
2023/05/22 06:10:42;;;;;;;38.95;26.23;;;;;;;15.85;100.00;101342.94;5057562;28;20074;-65
2023/05/22 06:13:12;;;;;;;42.80;29.23;;;;;;;15.88;100.00;101347.88;5024805;28;20065;-64
2023/05/22 06:15:41;;;;;;;42.00;27.55;;;;;;;15.89;100.00;101350.31;5055587;28;20072;-61
2023/05/22 06:18:08;;;;;;;47.75;27.15;;;;;;;15.93;100.00;101353.31;5047237;28;20064;-61
2023/05/22 06:20:38;;;;;;;47.50;27.48;;;;;;;15.98;100.00;101350.53;5019910;28;20079;-64
2023/05/22 06:23:06;;;;;;;42.75;27.67;;;;;;;16.04;100.00;101360.34;5035272;28;20052;-64
2023/05/22 06:25:34;;;;;;;37.17;24.80;;;;;;;16.06;100.00;101358.13;5050096;28;20123;-66
2023/05/22 06:28:04;;;;;;;44.85;27.27;;;;;;;16.07;100.00;101353.47;5031912;28;20076;-66
2023/05/22 06:30:33;;;;;;;40.80;27.73;;;;;;;16.06;100.00;101355.38;5048733;28;20053;-65
2023/05/22 06:33:13;;;;;;;40.22;28.77;;;;;;;16.02;100.00;101356.25;5033030;28;20131;-66
2023/05/22 06:35:41;;;;;;;44.88;28.70;;;;;;;15.98;100.00;101361.50;5034271;28;20044;-67
2023/05/22 06:38:11;;;;;;;41.90;29.85;;;;;;;15.98;100.00;101356.00;5035473;28;20045;-67
2023/05/22 06:40:41;;;;;;;40.15;29.02;;;;;;;15.95;100.00;101360.16;5051759;28;20056;-65
2023/05/22 06:43:24;;;;;;;41.67;30.27;;;;;;;15.85;100.00;101363.03;5053024;28;20136;-66
2023/05/22 06:46:00;;;;;;;46.88;32.20;;;;;;;15.74;100.00;101362.28;5045084;28;20049;-66
2023/05/22 06:48:33;;;;;;;43.83;30.10;;;;;;;15.82;100.00;101365.53;5048772;28;20079;-66
2023/05/22 06:51:24;;;;;;;45.13;29.42;;;;;;;15.92;100.00;101373.66;5051468;28;20095;-66
2023/05/22 06:54:03;;;;;;;45.17;29.02;;;;;;;16.01;100.00;101376.59;5019365;28;20050;-66
2023/05/22 06:56:31;;;;;;;48.22;29.70;;;;;;;16.06;100.00;101374.59;5036942;28;20128;-65
2023/05/22 06:59:04;;;;;;;46.42;30.65;;;;;;;16.07;100.00;101376.25;5035910;28;20045;-65
2023/05/22 07:01:56;;;;;;;38.60;28.02;;;;;;;16.11;100.00;101377.31;5049722;28;20080;-64
2023/05/22 07:04:55;;;;;;;49.92;32.47;;;;;;;16.14;100.00;101382.25;5048570;28;20044;-66
2023/05/22 07:07:43;;;;;;;43.50;31.83;;;;;;;16.15;100.00;101386.63;5038709;28;20465;-64
2023/05/22 07:10:11;;;;;;;46.92;29.60;;;;;;;16.19;100.00;101382.19;5031861;28;20045;-65
2023/05/22 07:12:39;;;;;;;43.50;30.15;;;;;;;16.26;100.00;101384.59;5066107;28;20476;-65
2023/05/22 07:15:10;;;;;;;43.17;28.15;;;;;;;16.30;100.00;101385.63;5074009;28;20048;-65
2023/05/22 07:17:40;;;;;;;46.35;29.17;;;;;;;16.36;100.00;101384.47;5026984;28;20048;-65
2023/05/22 07:20:10;;;;;;;44.45;28.67;;;;;;;16.40;100.00;101381.91;5043788;28;20385;-65
2023/05/22 07:22:43;;;;;;;45.55;29.67;;;;;;;16.46;100.00;101393.69;5058740;28;20432;-65
2023/05/22 07:25:11;;;;;;;42.88;29.35;;;;;;;16.48;100.00;101394.22;5058762;28;20449;-67
2023/05/22 07:27:38;;;;;;;47.55;28.55;;;;;;;16.44;100.00;101402.22;5065074;28;20059;-65
2023/05/22 07:30:07;;;;;;;44.38;29.63;;;;;;;16.45;100.00;101401.13;5055695;28;20056;-65
2023/05/22 07:32:36;;;;;;;48.55;31.42;;;;;;;16.45;100.00;101398.38;5003464;28;20059;-65
2023/05/22 07:35:04;;;;;;;44.65;32.42;;;;;;;16.50;100.00;101401.06;5019846;28;20049;-65
2023/05/22 07:37:34;;;;;;;42.05;29.05;;;;;;;16.56;100.00;101399.88;5035858;28;20072;-65
2023/05/22 07:40:06;;;;;;;42.83;27.48;;;;;;;16.64;100.00;101394.84;5036753;28;20092;-65
2023/05/22 07:42:35;;;;;;;40.15;28.08;;;;;;;16.70;100.00;101393.69;5055012;28;20041;-66
2023/05/22 07:45:04;;;;;;;43.05;28.90;;;;;;;16.73;100.00;101393.06;5058575;28;20086;-66
2023/05/22 07:47:32;;;;;;;37.25;25.75;;;;;;;16.75;100.00;101385.34;5075189;28;20052;-66
2023/05/22 07:50:03;;;;;;;39.75;26.98;;;;;;;16.79;100.00;101391.94;5058649;28;20051;-65
2023/05/22 07:52:33;;;;;;;41.67;26.23;;;;;;;16.85;100.00;101398.19;5036018;28;20509;-66
2023/05/22 07:55:02;;;;;;;45.55;28.58;;;;;;;16.92;100.00;101404.94;5019199;28;20473;-66
2023/05/22 07:57:31;;;;;;;35.35;22.48;;;;;;;16.95;100.00;101396.09;5035113;28;20053;-66
2023/05/22 08:00:12;;;;;;;38.75;26.30;;;;;;;17.01;100.00;101400.41;5018744;28;20132;-65
2023/05/22 08:02:41;;;;;;;41.40;27.83;;;;;;;17.03;100.00;101403.69;5037989;28;20560;-65
2023/05/22 08:05:09;;;;;;;41.30;26.98;;;;;;;17.07;100.00;101397.59;5055956;28;20041;-65
2023/05/22 08:07:37;;;;;;;38.67;26.52;;;;;;;17.09;100.00;101400.88;5038350;28;20377;-65
2023/05/22 08:10:14;;;;;;;42.70;27.27;;;;;;;17.12;100.00;101397.50;5054287;28;20045;-65
2023/05/22 08:12:41;;;;;;;41.35;24.65;;;;;;;17.17;100.00;101394.69;5055516;28;20545;-65
2023/05/22 08:15:09;;;;;;;35.83;25.50;;;;;;;17.20;100.00;101405.13;5074099;28;20484;-64
2023/05/22 08:17:37;;;;;;;39.58;26.98;;;;;;;17.24;100.00;101395.13;5074175;28;20382;-65
2023/05/22 08:20:07;;;;;;;38.40;26.20;;;;;;;17.26;100.00;101392.88;5075967;28;20115;-65
2023/05/22 08:22:37;;;;;;;42.08;28.25;;;;;;;17.31;100.00;101392.00;5054991;28;20076;-65
2023/05/22 08:25:05;;;;;;;37.85;24.52;;;;;;;17.34;100.00;101389.47;5055502;28;20049;-65
2023/05/22 08:27:33;;;;;;;44.42;27.85;;;;;;;17.36;100.00;101389.97;5034778;28;20041;-65
2023/05/22 08:30:03;;;;;;;46.75;27.98;;;;;;;17.36;100.00;101387.22;5035934;28;20128;-64
2023/05/22 08:32:31;;;;;;;44.25;29.35;;;;;;;17.38;100.00;101398.75;5035887;28;20481;-64
2023/05/22 08:34:59;;;;;;;42.50;27.40;;;;;;;17.40;100.00;101396.53;5018253;28;20056;-65
2023/05/22 08:37:27;;;;;;;45.50;28.30;;;;;;;17.44;100.00;101386.53;5036083;28;20041;-65
2023/05/22 08:39:55;;;;;;;42.10;27.42;;;;;;;17.46;100.00;101389.81;5051277;28;20051;-66
2023/05/22 08:42:23;;;;;;;49.10;30.15;;;;;;;17.51;100.00;101385.31;5055383;28;20049;-66
2023/05/22 08:44:50;;;;;;;45.60;29.45;;;;;;;17.55;100.00;101397.38;5054214;28;20059;-65
2023/05/22 08:47:19;;;;;;;43.20;27.55;;;;;;;17.60;100.00;101389.03;5037387;28;20053;-64
2023/05/22 08:49:50;;;;;;;45.80;29.02;;;;;;;17.66;100.00;101396.09;5054538;28;20052;-65
2023/05/22 08:52:21;;;;;;;47.78;30.60;;;;;;;17.68;100.00;101396.63;5055651;28;20045;-65
2023/05/22 08:54:54;;;;;;;50.88;30.95;;;;;;;17.68;100.00;101402.16;5054097;28;20405;-65
2023/05/22 08:57:23;;;;;;;49.60;30.85;;;;;;;17.67;100.00;101401.31;5054093;28;20487;-64
2023/05/22 08:59:51;;;;;;;44.97;29.65;;;;;;;17.68;100.00;101396.63;5071720;28;20060;-65
2023/05/22 09:02:19;;;;;;;48.83;29.63;;;;;;;17.73;100.00;101401.25;5075763;28;20060;-66
2023/05/22 09:04:47;;;;;;;47.58;28.67;;;;;;;17.78;100.00;101399.19;5072868;28;20131;-66
2023/05/22 09:07:14;;;;;;;47.40;30.27;;;;;;;17.83;100.00;101401.09;5036111;28;20049;-66
2023/05/22 09:09:42;;;;;;;45.38;29.02;;;;;;;17.86;100.00;101408.75;5055113;28;20041;-64
2023/05/22 09:12:10;;;;;;;40.92;27.08;;;;;;;17.92;100.00;101406.69;5053756;28;20049;-65
2023/05/22 09:14:41;;;;;;;48.85;29.88;;;;;;;17.95;100.00;101406.94;5053842;28;20123;-65
2023/05/22 09:17:10;;;;;;;47.80;30.88;;;;;;;17.95;100.00;101406.13;5038538;28;20120;-65
2023/05/22 09:19:42;;;;;;;45.53;29.63;;;;;;;17.95;100.00;101395.09;5054107;28;20660;-64
2023/05/22 09:22:10;;;;;;;42.00;28.13;;;;;;;17.98;100.00;101397.22;5054381;28;20055;-65
2023/05/22 09:24:40;;;;;;;42.80;27.77;;;;;;;18.04;100.00;101394.06;5055071;28;20045;-65
2023/05/22 09:27:09;;;;;;;46.60;29.38;;;;;;;18.10;100.00;101398.34;5053093;28;20494;-64
2023/05/22 09:29:48;;;;;;;44.67;27.30;;;;;;;18.15;100.00;101394.69;5054419;28;20107;-65
2023/05/22 09:32:17;;;;;;;37.88;25.83;;;;;;;18.19;100.00;101389.41;5053694;28;20048;-66
2023/05/22 09:34:45;;;;;;;43.47;31.25;;;;;;;18.20;100.00;101391.81;5053375;28;20060;-65
2023/05/22 09:37:14;;;;;;;37.72;26.67;;;;;;;18.21;100.00;101387.97;5054028;28;20048;-65
2023/05/22 09:39:46;;;;;;;44.42;30.50;;;;;;;18.25;100.00;101396.44;5052818;28;20507;-63
2023/05/22 09:42:16;;;;;;;46.35;31.02;;;;;;;18.29;100.00;101386.44;5066292;28;20389;-65
2023/05/22 09:44:51;;;;;;;43.97;30.10;;;;;;;18.31;100.00;101387.75;5074303;28;20059;-65
2023/05/22 09:47:18;;;;;;;43.33;30.30;;;;;;;18.38;100.00;101386.53;5073241;28;20427;-65
2023/05/22 09:49:46;;;;;;;44.97;28.58;;;;;;;18.43;100.00;101386.44;5056749;28;20045;-65
2023/05/22 09:52:15;;;;;;;49.22;31.80;;;;;;;18.47;100.00;101387.44;5072524;28;20044;-65
2023/05/22 09:54:54;;;;;;;42.75;31.35;;;;;;;18.49;100.00;101374.16;5037341;28;20094;-66
2023/05/22 09:57:25;;;;;;;42.40;31.70;;;;;;;18.51;100.00;101378.22;5037417;28;20053;-65
2023/05/22 09:59:57;;;;;;;46.85;32.03;;;;;;;18.52;100.00;101382.66;5039376;28;20074;-64
2023/05/22 10:02:27;;;;;;;45.15;32.38;;;;;;;18.57;100.00;101380.88;5060566;28;20057;-65
2023/05/22 10:04:54;;;;;;;42.90;29.23;;;;;;;18.63;100.00;101391.50;5051772;28;20076;-65
2023/05/22 10:07:26;;;;;;;42.78;30.60;;;;;;;18.69;100.00;101382.00;5049231;28;20049;-64
2023/05/22 10:10:10;;;;;;;40.58;28.90;;;;;;;18.78;100.00;101387.63;5060034;28;20485;-63
2023/05/22 10:13:00;;;;;;;47.50;33.85;;;;;;;18.80;100.00;101376.28;5055893;28;20404;-65
2023/05/22 10:15:28;;;;;;;45.63;31.08;;;;;;;18.82;100.00;101385.09;5060870;28;20051;-65
2023/05/22 10:17:58;;;;;;;43.47;32.38;;;;;;;18.89;100.00;101380.75;5024055;28;20049;-65
2023/05/22 10:20:28;;;;;;;43.65;31.27;;;;;;;18.91;100.00;101384.03;5017469;28;20053;-65
2023/05/22 10:22:56;;;;;;;47.90;33.97;;;;;;;18.94;100.00;101380.66;5018004;28;20049;-66
2023/05/22 10:25:24;;;;;;;43.75;32.63;;;;;;;18.92;100.00;101377.38;5037854;28;20402;-66
2023/05/22 10:27:53;;;;;;;48.42;34.70;;;;;;;18.99;100.00;101371.44;5053233;28;20051;-66
2023/05/22 10:30:27;;;;;;;49.15;35.55;;;;;;;19.04;100.00;101371.31;5035353;28;20048;-64
2023/05/22 10:33:16;;;;;;;46.42;32.08;;;;;;;19.07;100.00;101369.88;5053443;28;20115;-65
2023/05/22 10:36:00;;;;;;;47.33;34.35;;;;;;;19.18;100.00;101370.44;5043948;28;20098;-64
2023/05/22 10:38:56;;;;;;;45.38;31.77;;;;;;;19.23;100.00;101362.03;5073723;28;20044;-65
2023/05/22 10:41:25;;;;;;;41.42;32.65;;;;;;;19.24;100.00;101355.38;5065075;28;20168;-64
2023/05/22 10:43:55;;;;;;;40.65;31.58;;;;;;;19.30;100.00;101362.41;5067869;28;20098;-66
2023/05/22 10:46:24;;;;;;;40.20;29.08;;;;;;;19.33;100.00;101367.31;5057688;28;20049;-63
2023/05/22 10:48:54;;;;;;;32.10;23.73;;;;;;;19.34;100.00;101358.72;5052784;28;20049;-64
2023/05/22 10:51:22;;;;;;;43.33;28.17;;;;;;;19.36;100.00;101356.47;5040189;28;20107;-64
2023/05/22 10:53:52;;;;;;;43.15;30.48;;;;;;;19.41;100.00;101350.00;5053297;28;20044;-63
2023/05/22 10:56:20;;;;;;;41.40;29.17;;;;;;;19.46;100.00;101355.38;5041460;28;20443;-65
2023/05/22 10:58:56;;;;;;;43.63;30.02;;;;;;;19.52;100.00;101353.28;5057075;28;20457;-67
2023/05/22 11:01:28;;;;;;;34.22;23.23;;;;;;;19.54;100.00;101354.63;4327658;28;10000483;-65
2023/05/22 11:04:05;;;;;;;31.65;21.20;;;;;;;19.55;100.00;101353.50;5032451;28;20051;-65
2023/05/22 11:06:40;;;;;;;36.20;26.73;;;;;;;19.64;100.00;101355.47;5040239;28;20041;-64
2023/05/22 11:09:30;;;;;;;40.45;27.85;;;;;;;19.70;100.00;101348.69;5052981;28;20063;-65
2023/05/22 11:12:16;;;;;;;47.47;31.92;;;;;;;19.77;100.00;101355.44;5053562;28;20519;-65
2023/05/22 11:14:49;;;;;;;47.33;29.90;;;;;;;19.82;100.00;101356.41;5048864;28;20057;-65
2023/05/22 11:17:25;;;;;;;38.35;26.23;;;;;;;19.80;100.00;101351.22;5032918;28;20045;-65
2023/05/22 11:20:11;;;;;;;46.70;30.95;;;;;;;19.84;100.00;101352.19;5049285;28;20079;-65